createdAt,value
2022-12-08T00:04:22.962Z,6.00
2022-12-08T00:09:39.353Z,7.70
2022-12-08T00:14:44.983Z,5.50
2022-12-08T00:19:47.834Z,6.80
2022-12-08T00:24:50.770Z,6.50
2022-12-08T00:29:56.080Z,6.40
2022-12-08T00:34:58.830Z,6.40
2022-12-08T00:40:01.829Z,4.50
2022-12-08T00:45:08.259Z,5.40
2022-12-08T00:50:11.670Z,3.80
2022-12-08T00:55:17.289Z,4.60
2022-12-08T01:00:20.637Z,4.70
2022-12-08T01:05:23.422Z,4.40
2022-12-08T01:10:26.645Z,5.70
2022-12-08T01:15:29.461Z,5.00
2022-12-08T01:20:32.266Z,5.90
2022-12-08T01:25:35.616Z,7.10
2022-12-08T01:30:39.468Z,4.40
2022-12-08T01:35:42.892Z,5.50
2022-12-08T01:40:46.180Z,4.20
2022-12-08T01:45:49.330Z,4.40
2022-12-08T01:50:54.690Z,4.20
2022-12-08T01:56:01.793Z,6.20
2022-12-08T02:01:04.750Z,5.10
2022-12-08T02:06:08.430Z,5.70
2022-12-08T02:11:11.760Z,5.30
2022-12-08T02:16:36.031Z,5.90
2022-12-08T02:22:23.004Z,6.40
2022-12-08T02:28:29.236Z,5.00
2022-12-08T02:34:15.661Z,4.50
2022-12-08T02:39:58.339Z,5.00
2022-12-08T02:45:04.677Z,5.70
2022-12-08T02:50:08.344Z,8.20
2022-12-08T02:55:22.493Z,7.50
2022-12-08T03:00:28.166Z,5.70
2022-12-08T03:05:38.187Z,8.90
2022-12-08T03:10:45.153Z,7.10
2022-12-08T03:15:49.987Z,8.10
2022-12-08T03:20:53.116Z,6.00
2022-12-08T03:26:26.052Z,6.00
2022-12-08T03:31:31.040Z,7.00
2022-12-08T03:36:34.955Z,6.90
2022-12-08T03:41:37.749Z,6.00
2022-12-08T03:46:40.555Z,6.50
2022-12-08T03:51:43.592Z,7.10
2022-12-08T03:56:46.431Z,6.10
2022-12-08T04:01:50.410Z,6.20
2022-12-08T04:06:53.291Z,9.30
2022-12-08T04:11:56.137Z,6.90
2022-12-08T04:16:58.917Z,8.60
2022-12-08T04:22:01.714Z,8.50
2022-12-08T04:27:04.569Z,9.10
2022-12-08T04:32:07.445Z,8.40
2022-12-08T04:37:10.344Z,7.20
2022-12-08T04:42:13.176Z,8.20
2022-12-08T04:47:16.031Z,8.90
2022-12-08T04:52:18.860Z,8.70
2022-12-08T04:57:21.727Z,7.80
2022-12-08T05:02:24.612Z,10.40
2022-12-08T05:07:27.583Z,10.20
2022-12-08T05:12:31.871Z,10.80
2022-12-08T05:17:34.649Z,9.80
2022-12-08T05:22:37.539Z,10.30
2022-12-08T05:27:40.427Z,14.40
2022-12-08T05:32:43.468Z,11.60
2022-12-08T05:37:47.577Z,9.40
2022-12-08T05:42:50.339Z,11.00
2022-12-08T05:47:53.865Z,15.90
2022-12-08T05:52:56.941Z,11.10
2022-12-08T05:58:04.540Z,10.60
2022-12-08T06:03:14.574Z,11.60
2022-12-08T06:08:17.887Z,13.30
2022-12-08T06:13:20.716Z,13.00
2022-12-08T06:18:28.365Z,12.10
2022-12-08T06:23:36.224Z,14.30
2022-12-08T06:28:40.167Z,11.40
2022-12-08T06:33:43.296Z,12.70
2022-12-08T06:38:47.533Z,13.40
2022-12-08T06:43:51.075Z,11.30
2022-12-08T06:48:53.923Z,11.40
2022-12-08T06:53:58.247Z,11.20
2022-12-08T06:59:01.437Z,9.50
2022-12-08T07:04:05.398Z,13.20
2022-12-08T07:09:08.539Z,12.40
2022-12-08T07:14:12.069Z,11.60
2022-12-08T07:19:15.179Z,13.10
2022-12-08T07:24:17.944Z,12.40
2022-12-08T07:29:26.088Z,12.90
2022-12-08T07:34:29.332Z,13.10
2022-12-08T07:39:32.288Z,13.80
2022-12-08T07:44:35.068Z,15.50
2022-12-08T07:49:38.025Z,19.70
2022-12-08T07:54:40.949Z,14.60
2022-12-08T07:59:43.757Z,20.80
2022-12-08T08:04:50.646Z,22.00
2022-12-08T08:09:53.547Z,21.90
2022-12-08T08:14:56.387Z,19.40
2022-12-08T08:19:59.827Z,21.90
2022-12-08T08:25:04.162Z,18.40
2022-12-08T08:30:09.295Z,18.20
2022-12-08T08:35:12.242Z,20.30
2022-12-08T08:40:15.196Z,16.00
2022-12-08T08:45:18.056Z,19.10
2022-12-08T08:50:22.444Z,17.20
2022-12-08T08:55:25.305Z,15.00
2022-12-08T09:00:28.451Z,16.40
2022-12-08T09:05:31.283Z,17.80
2022-12-08T09:10:34.145Z,18.20
2022-12-08T09:15:37.382Z,17.00
2022-12-08T09:20:40.181Z,17.10
2022-12-08T09:25:45.685Z,18.60
2022-12-08T09:30:48.851Z,21.10
2022-12-08T09:35:51.688Z,15.70
2022-12-08T09:40:54.825Z,15.40
2022-12-08T09:45:57.684Z,20.80
2022-12-08T09:51:01.046Z,17.70
2022-12-08T09:56:18.918Z,15.40
2022-12-08T10:01:33.991Z,14.40
2022-12-08T10:06:48.117Z,16.80
2022-12-08T10:12:16.759Z,20.00
2022-12-08T10:17:30.773Z,18.90
2022-12-08T10:22:37.583Z,18.70
2022-12-08T10:27:42.853Z,23.70
2022-12-08T10:32:48.074Z,17.70
2022-12-08T10:38:02.177Z,21.30
2022-12-08T10:43:07.060Z,23.10
2022-12-08T10:48:27.417Z,21.60
2022-12-08T10:53:33.875Z,22.10
2022-12-08T10:58:41.076Z,19.50
2022-12-08T11:04:02.098Z,21.70
2022-12-08T11:09:20.073Z,19.60
2022-12-08T11:14:29.608Z,22.90
2022-12-08T11:19:32.575Z,22.10
2022-12-08T11:24:40.997Z,20.30
2022-12-08T11:30:31.015Z,24.70
2022-12-08T11:35:39.174Z,19.20
2022-12-08T11:40:44.021Z,22.70
2022-12-08T11:46:14.753Z,25.10
2022-12-08T11:56:38.975Z,28.70
2022-12-08T12:01:45.551Z,23.70
2022-12-08T12:07:26.518Z,27.10
2022-12-08T12:13:02.414Z,26.10
2022-12-08T12:18:33.789Z,26.60
2022-12-08T12:23:59.210Z,26.90
2022-12-08T12:29:33.039Z,21.90
2022-12-08T12:34:56.028Z,29.30
2022-12-08T12:40:01.393Z,26.20
2022-12-08T12:45:22.185Z,30.00
2022-12-08T12:50:34.234Z,26.00
2022-12-08T12:55:46.273Z,31.70
2022-12-08T13:00:49.296Z,33.90
2022-12-08T13:05:52.625Z,34.20
2022-12-08T13:11:14.922Z,32.30
2022-12-08T13:16:20.512Z,33.70
2022-12-08T13:21:27.609Z,34.80
2022-12-08T13:26:32.614Z,33.80
2022-12-08T13:31:51.476Z,32.90
2022-12-08T13:37:02.419Z,30.70
2022-12-08T13:42:31.207Z,33.50
2022-12-08T13:48:13.566Z,33.70
2022-12-08T13:58:44.862Z,35.90
2022-12-08T14:04:30.992Z,37.00
2022-12-08T14:09:24.357Z,39.50
2022-12-08T14:21:05.056Z,34.30
2022-12-08T14:26:05.043Z,36.50
2022-12-08T14:31:08.117Z,35.90
2022-12-08T14:36:14.659Z,32.80
2022-12-08T14:41:17.426Z,37.10
2022-12-08T14:46:22.739Z,34.90
2022-12-08T14:51:30.742Z,31.80
2022-12-08T14:56:41.287Z,35.70
2022-12-08T15:01:44.338Z,34.70
2022-12-08T15:06:53.668Z,39.00
2022-12-08T15:12:15.071Z,32.80
2022-12-08T15:17:33.448Z,42.70
2022-12-08T15:22:37.105Z,37.20
2022-12-08T15:27:49.868Z,37.60
2022-12-08T15:32:56.388Z,35.90
2022-12-08T15:37:59.287Z,38.90
2022-12-08T15:43:03.525Z,37.90
2022-12-08T15:48:06.662Z,36.20
2022-12-08T15:53:10.762Z,35.40
2022-12-08T16:09:21.156Z,40.10
2022-12-08T16:15:23.395Z,34.10
2022-12-08T16:19:47.206Z,38.00
2022-12-08T16:24:50.157Z,41.30
2022-12-08T16:29:53.012Z,39.20
2022-12-08T16:34:55.885Z,36.40
2022-12-08T16:40:00.361Z,39.20
2022-12-08T16:45:21.551Z,36.90
2022-12-08T16:50:29.655Z,36.00
2022-12-08T16:55:32.762Z,38.90
2022-12-08T17:00:37.057Z,35.40
2022-12-08T17:05:41.457Z,38.80
2022-12-08T17:10:44.288Z,37.10
2022-12-08T17:15:48.006Z,32.50
2022-12-08T17:20:50.909Z,34.20
2022-12-08T17:25:59.407Z,34.90
2022-12-08T17:31:30.303Z,35.40
2022-12-08T17:36:33.818Z,34.50
2022-12-08T17:41:37.350Z,35.70
2022-12-08T17:46:43.360Z,33.70
2022-12-08T17:51:49.648Z,32.00
2022-12-08T17:56:52.764Z,28.50
2022-12-08T18:01:58.201Z,31.50
2022-12-08T18:07:03.469Z,32.70
2022-12-08T18:12:06.603Z,34.40
2022-12-08T18:17:09.922Z,32.30
2022-12-08T18:22:12.994Z,33.10
2022-12-08T18:27:16.034Z,32.40
2022-12-08T18:32:24.217Z,32.60
2022-12-08T18:37:27.480Z,33.00
2022-12-08T18:42:30.477Z,35.40
2022-12-08T18:47:39.949Z,38.20
2022-12-08T18:52:42.772Z,36.50
2022-12-08T18:57:45.709Z,39.10
2022-12-08T19:02:48.531Z,39.90
2022-12-08T19:07:52.250Z,41.50
2022-12-08T19:12:55.026Z,35.10
2022-12-08T19:17:58.361Z,33.70
2022-12-08T19:23:01.624Z,35.30
2022-12-08T19:28:05.769Z,33.50
2022-12-08T19:33:09.717Z,29.70
2022-12-08T19:38:13.323Z,31.00
2022-12-08T19:43:37.009Z,33.50
2022-12-08T19:48:40.269Z,31.70
2022-12-08T19:53:47.546Z,33.50
2022-12-08T19:58:50.959Z,29.20
2022-12-08T20:03:53.885Z,33.30
2022-12-08T20:08:56.677Z,28.40
2022-12-08T20:13:59.521Z,34.70
2022-12-08T20:19:02.620Z,34.40
2022-12-08T20:24:05.985Z,33.80
2022-12-08T20:29:09.097Z,31.90
2022-12-08T20:34:15.598Z,32.50
2022-12-08T20:39:18.733Z,34.60
2022-12-08T20:44:21.717Z,39.50
2022-12-08T20:49:27.257Z,35.70
2022-12-08T20:54:33.121Z,33.60
2022-12-08T20:59:37.839Z,34.40
2022-12-08T21:04:40.839Z,35.80
2022-12-08T21:09:46.870Z,40.20
2022-12-08T21:14:49.961Z,37.60
2022-12-08T21:19:52.843Z,44.80
2022-12-08T21:24:56.042Z,48.10
2022-12-08T21:29:58.851Z,44.60
2022-12-08T21:35:01.667Z,44.00
2022-12-08T21:40:07.381Z,42.70
2022-12-08T21:45:16.808Z,42.10
2022-12-08T21:50:19.932Z,44.50
2022-12-08T21:55:23.874Z,40.50
2022-12-08T22:00:27.010Z,41.70
2022-12-08T22:05:29.954Z,38.70
2022-12-08T22:10:32.876Z,46.50
2022-12-08T22:15:36.975Z,43.90
2022-12-08T22:20:44.122Z,43.40
2022-12-08T22:26:00.486Z,43.30
2022-12-08T22:31:14.767Z,45.10
2022-12-08T22:36:23.365Z,43.50
2022-12-08T22:41:26.387Z,41.50
2022-12-08T22:46:31.651Z,40.50
2022-12-08T22:51:38.167Z,39.50
2022-12-08T22:56:42.386Z,40.00
2022-12-08T23:01:45.905Z,37.30
2022-12-08T23:06:49.508Z,38.60
2022-12-08T23:11:52.791Z,40.70
2022-12-08T23:16:56.099Z,36.50
2022-12-08T23:21:58.942Z,36.20
2022-12-08T23:27:01.734Z,35.90
2022-12-08T23:32:06.345Z,36.20
2022-12-08T23:37:09.288Z,36.20
2022-12-08T23:42:12.133Z,33.00
2022-12-08T23:47:16.283Z,35.50
2022-12-08T23:52:19.343Z,32.80
2022-12-08T23:57:22.179Z,34.70
